Jupiter, FL (33458)

2:46 PM EDT on July 30, 2015 (GMT -0400)
Pennock Ln. | | Change Station
CLOSE
Current Station
Personal Weather Station
Location: Jupiter, FL
Elevation: 20 ft
Nearby Weather Stations

Elev 20 ft 26.94 °N, 80.11 °W | Updated 41 seconds ago

Overcast
Overcast
89.0 °F
Feels Like 102 °F
N
0.8
Wind Variable Wind from SSW
Gusts 1.2 mph

Today
High -- | Low -- °F
--% Chance of Precip.
Yesterday
High -- | Low -- °F
Precip. -- in
6:43 AM 8:09 PM
Waxing Gibbous, 99% visible
Pressure 30.01 in
Visibility 10.0 miles
Clouds Scattered Clouds 3200 ft
Scattered Clouds 7000 ft
Mostly Cloudy 23000 ft
Heat Index 102 °F
Dew Point 77 °F
Humidity 68%
Rainfall 0.00 in
Snow Depth Not available.
UV 9.1 out of 12
Pollen 1.10 out of 12
Air Quality Not available.
Flu Activity Not available.
METAR KPBI 301753Z 26011KT 10SM TS SCT032CB SCT070 BKN230 33/22 A3001 RMK AO2 TSB47 SLP162 OCNL LTGICCG N TS N MOV E CB DSNT SE-S T03280222 10333 20261 58009

More Conditions Fewer Conditions

Pressure 30.01 in
Visibility 10.0 miles
Clouds Scattered Clouds 3200 ft
Scattered Clouds 7000 ft
Mostly Cloudy 23000 ft
Heat Index 102 °F
Dew Point 77 °F
Humidity 68%
Rainfall 0.00 in
Snow Depth Not available.
UV 9.1 out of 12
Pollen 1.10 out of 12
Air Quality Not available.
Flu Activity Not available.
METAR KPBI 301753Z 26011KT 10SM TS SCT032CB SCT070 BKN230 33/22 A3001 RMK AO2 TSB47 SLP162 OCNL LTGICCG N TS N MOV E CB DSNT SE-S T03280222 10333 20261 58009

More Conditions Fewer Conditions

10-Day Weather Forecast

×

Almanac

Astronomy

Jul. 30, 2015 Rise Set
Actual Time
Civil Twilight
Nautical Twilight
Astronomical Twilight
Moon
Length of Visible Light
Length of Day
Tomorrow will be .
, % of the Moon is Illuminated

Today's Extremes

State Highs State Lows

Community

WunderPhotos

Upload Photos

1,842,476 photos uploaded!

WunderBlogs® & News

Nearby

Air Quality

  Air Quality AQ Index Pollutant
Not available.

Snow Depth

Station Depth Elevation

Earthquake Activity

City Distance Mag. Time & Date
Minimum magnitude displayed is 2.5.

Coastal Water Temperatures

Place Temperature

Stations

Nearby Weather Stations

Station Location Temp. Windchill Dew Point Humidity Wind Precip. Elev Updated Type